sensor_id;sensor_type;location;lat;lon;timestamp;pressure;altitude;pressure_sealevel;temperature;humidity
46291;BME280;32023;44.444;26.006;2022-12-20T00:26:12;102994.03;;;-1.13;75.87
46291;BME280;32023;44.444;26.006;2022-12-20T00:28:59;102996.75;;;-1.13;76.00
46291;BME280;32023;44.444;26.006;2022-12-20T00:34:35;102993.06;;;-1.12;76.35
46291;BME280;32023;44.444;26.006;2022-12-20T00:37:10;102992.97;;;-1.11;75.96
46291;BME280;32023;44.444;26.006;2022-12-20T00:39:36;102988.53;;;-1.12;76.27
46291;BME280;32023;44.444;26.006;2022-12-20T00:42:03;102997.59;;;-1.13;76.23
46291;BME280;32023;44.444;26.006;2022-12-20T00:44:32;102987.91;;;-1.15;76.44
46291;BME280;32023;44.444;26.006;2022-12-20T00:47:01;102978.19;;;-1.18;76.46
46291;BME280;32023;44.444;26.006;2022-12-20T00:49:27;102977.34;;;-1.18;76.57
46291;BME280;32023;44.444;26.006;2022-12-20T00:51:56;102981.78;;;-1.17;76.82
46291;BME280;32023;44.444;26.006;2022-12-20T00:54:23;102971.78;;;-1.17;76.68
46291;BME280;32023;44.444;26.006;2022-12-20T00:56:49;102965.31;;;-1.14;76.78
46291;BME280;32023;44.444;26.006;2022-12-20T00:59:16;102959.03;;;-1.15;76.46
46291;BME280;32023;44.444;26.006;2022-12-20T01:01:42;102963.69;;;-1.17;76.35
46291;BME280;32023;44.444;26.006;2022-12-20T01:04:09;102962.09;;;-1.19;76.60
46291;BME280;32023;44.444;26.006;2022-12-20T01:06:36;102967.13;;;-1.26;76.67
46291;BME280;32023;44.444;26.006;2022-12-20T01:09:02;102960.84;;;-1.26;76.48
46291;BME280;32023;44.444;26.006;2022-12-20T01:11:34;102959.13;;;-1.27;76.83
46291;BME280;32023;44.444;26.006;2022-12-20T01:14:13;102959.97;;;-1.27;76.84
46291;BME280;32023;44.444;26.006;2022-12-20T01:16:44;102957.16;;;-1.25;76.85
46291;BME280;32023;44.444;26.006;2022-12-20T01:19:15;102949.78;;;-1.23;76.94
46291;BME280;32023;44.444;26.006;2022-12-20T01:21:42;102939.75;;;-1.21;76.77
46291;BME280;32023;44.444;26.006;2022-12-20T01:24:16;102944.13;;;-1.20;76.88
46291;BME280;32023;44.444;26.006;2022-12-20T01:26:46;102939.50;;;-1.18;76.59
46291;BME280;32023;44.444;26.006;2022-12-20T01:29:13;102934.44;;;-1.23;76.60
46291;BME280;32023;44.444;26.006;2022-12-20T01:31:40;102919.19;;;-1.24;76.82
46291;BME280;32023;44.444;26.006;2022-12-20T01:34:07;102922.75;;;-1.23;77.00
46291;BME280;32023;44.444;26.006;2022-12-20T01:36:35;102913.94;;;-1.25;77.00
46291;BME280;32023;44.444;26.006;2022-12-20T01:39:15;102907.66;;;-1.26;77.27
46291;BME280;32023;44.444;26.006;2022-12-20T01:41:43;102908.28;;;-1.22;77.40
46291;BME280;32023;44.444;26.006;2022-12-20T01:46:47;102885.78;;;-1.23;77.36
46291;BME280;32023;44.444;26.006;2022-12-20T01:51:55;102894.13;;;-1.37;76.88
46291;BME280;32023;44.444;26.006;2022-12-20T01:54:42;102892.59;;;-1.63;77.50
46291;BME280;32023;44.444;26.006;2022-12-20T01:57:20;102890.03;;;-1.88;78.70
46291;BME280;32023;44.444;26.006;2022-12-20T01:59:51;102889.56;;;-1.93;79.47
46291;BME280;32023;44.444;26.006;2022-12-20T02:02:19;102886.56;;;-2.02;79.75
46291;BME280;32023;44.444;26.006;2022-12-20T02:04:48;102874.75;;;-2.12;80.00
46291;BME280;32023;44.444;26.006;2022-12-20T02:07:19;102875.69;;;-2.24;80.60
46291;BME280;32023;44.444;26.006;2022-12-20T02:09:47;102872.22;;;-2.26;80.88
46291;BME280;32023;44.444;26.006;2022-12-20T02:12:27;102865.84;;;-2.25;80.81
46291;BME280;32023;44.444;26.006;2022-12-20T02:15:16;102870.53;;;-2.27;81.07
46291;BME280;32023;44.444;26.006;2022-12-20T02:20:55;102863.84;;;-2.34;80.92
46291;BME280;32023;44.444;26.006;2022-12-20T02:32:11;102859.44;;;-2.71;83.24
46291;BME280;32023;44.444;26.006;2022-12-20T02:34:42;102854.06;;;-2.71;83.07
46291;BME280;32023;44.444;26.006;2022-12-20T02:37:10;102856.25;;;-2.76;83.58
46291;BME280;32023;44.444;26.006;2022-12-20T02:39:39;102858.41;;;-2.81;83.82
46291;BME280;32023;44.444;26.006;2022-12-20T02:42:12;102843.97;;;-2.80;83.99
46291;BME280;32023;44.444;26.006;2022-12-20T02:44:51;102840.41;;;-2.81;83.76
46291;BME280;32023;44.444;26.006;2022-12-20T02:50:11;102858.34;;;-2.93;84.63
46291;BME280;32023;44.444;26.006;2022-12-20T02:52:38;102858.66;;;-2.97;85.27
46291;BME280;32023;44.444;26.006;2022-12-20T02:55:06;102857.69;;;-2.96;84.96
46291;BME280;32023;44.444;26.006;2022-12-20T02:57:49;102850.00;;;-2.89;85.31
46291;BME280;32023;44.444;26.006;2022-12-20T03:00:19;102848.81;;;-2.85;84.88
46291;BME280;32023;44.444;26.006;2022-12-20T03:02:48;102845.03;;;-2.83;84.66
46291;BME280;32023;44.444;26.006;2022-12-20T03:05:38;102841.38;;;-2.82;84.46
46291;BME280;32023;44.444;26.006;2022-12-20T03:08:08;102847.16;;;-2.75;84.94
46291;BME280;32023;44.444;26.006;2022-12-20T03:10:35;102830.78;;;-2.72;84.66
46291;BME280;32023;44.444;26.006;2022-12-20T03:13:01;102824.28;;;-2.70;84.39
46291;BME280;32023;44.444;26.006;2022-12-20T03:15:33;102825.25;;;-2.71;84.24
46291;BME280;32023;44.444;26.006;2022-12-20T03:18:00;102832.41;;;-2.82;83.79
46291;BME280;32023;44.444;26.006;2022-12-20T03:20:26;102787.00;;;-3.12;84.11
46291;BME280;32023;44.444;26.006;2022-12-20T03:22:56;102829.94;;;-2.85;84.25
46291;BME280;32023;44.444;26.006;2022-12-20T03:25:25;102831.91;;;-2.87;84.25
46291;BME280;32023;44.444;26.006;2022-12-20T03:27:51;102837.31;;;-2.87;84.53
46291;BME280;32023;44.444;26.006;2022-12-20T03:30:21;102829.09;;;-2.86;84.20
46291;BME280;32023;44.444;26.006;2022-12-20T03:32:47;102822.09;;;-2.88;84.42
46291;BME280;32023;44.444;26.006;2022-12-20T03:35:14;102823.69;;;-2.86;84.48
46291;BME280;32023;44.444;26.006;2022-12-20T03:38:11;102822.84;;;-2.86;83.98
46291;BME280;32023;44.444;26.006;2022-12-20T03:40:40;102826.28;;;-2.84;84.31
46291;BME280;32023;44.444;26.006;2022-12-20T03:43:16;102822.63;;;-2.83;83.67
46291;BME280;32023;44.444;26.006;2022-12-20T03:45:45;102811.84;;;-2.83;83.86
46291;BME280;32023;44.444;26.006;2022-12-20T03:48:14;102815.94;;;-2.91;83.67
46291;BME280;32023;44.444;26.006;2022-12-20T03:50:41;102811.00;;;-2.97;84.41
46291;BME280;32023;44.444;26.006;2022-12-20T03:53:14;102810.59;;;-3.03;84.44
46291;BME280;32023;44.444;26.006;2022-12-20T03:55:43;102810.38;;;-3.00;84.90
46291;BME280;32023;44.444;26.006;2022-12-20T03:58:10;102806.50;;;-2.96;84.45
46291;BME280;32023;44.444;26.006;2022-12-20T04:04:00;102814.44;;;-2.95;84.94
46291;BME280;32023;44.444;26.006;2022-12-20T04:09:49;102814.97;;;-2.89;84.24
46291;BME280;32023;44.444;26.006;2022-12-20T04:12:15;102806.47;;;-2.83;85.00
46291;BME280;32023;44.444;26.006;2022-12-20T04:14:44;102795.94;;;-2.75;84.44
46291;BME280;32023;44.444;26.006;2022-12-20T04:17:11;102801.88;;;-2.70;84.46
46291;BME280;32023;44.444;26.006;2022-12-20T04:26:26;102783.94;;;-2.71;84.44
46291;BME280;32023;44.444;26.006;2022-12-20T04:29:14;102774.03;;;-2.71;84.22
46291;BME280;32023;44.444;26.006;2022-12-20T04:31:41;102776.72;;;-2.71;84.23
46291;BME280;32023;44.444;26.006;2022-12-20T04:34:07;102776.09;;;-2.74;83.95
46291;BME280;32023;44.444;26.006;2022-12-20T04:36:44;102779.91;;;-2.77;83.84
46291;BME280;32023;44.444;26.006;2022-12-20T04:39:10;102777.94;;;-2.75;83.67
46291;BME280;32023;44.444;26.006;2022-12-20T04:41:39;102783.94;;;-2.71;83.87
46291;BME280;32023;44.444;26.006;2022-12-20T04:44:31;102774.91;;;-2.70;84.17
46291;BME280;32023;44.444;26.006;2022-12-20T04:46:57;102773.16;;;-2.71;84.11
46291;BME280;32023;44.444;26.006;2022-12-20T04:49:48;102774.91;;;-2.70;84.13
46291;BME280;32023;44.444;26.006;2022-12-20T04:52:19;102780.38;;;-2.72;84.14
46291;BME280;32023;44.444;26.006;2022-12-20T04:55:05;102780.88;;;-2.78;84.11
46291;BME280;32023;44.444;26.006;2022-12-20T04:57:50;102787.03;;;-2.76;84.53
46291;BME280;32023;44.444;26.006;2022-12-20T05:03:30;102782.41;;;-2.86;84.61
46291;BME280;32023;44.444;26.006;2022-12-20T05:05:57;102771.50;;;-2.85;84.79
46291;BME280;32023;44.444;26.006;2022-12-20T05:08:31;102782.69;;;-2.78;84.86
46291;BME280;32023;44.444;26.006;2022-12-20T05:11:19;102781.50;;;-2.74;84.99
46291;BME280;32023;44.444;26.006;2022-12-20T05:13:45;102769.41;;;-2.69;84.65
46291;BME280;32023;44.444;26.006;2022-12-20T05:16:12;102778.13;;;-2.65;84.23
46291;BME280;32023;44.444;26.006;2022-12-20T05:18:41;102781.69;;;-2.65;83.81
46291;BME280;32023;44.444;26.006;2022-12-20T05:21:16;102786.94;;;-2.63;83.57
46291;BME280;32023;44.444;26.006;2022-12-20T05:24:01;102782.31;;;-2.61;83.58
46291;BME280;32023;44.444;26.006;2022-12-20T05:26:46;102787.81;;;-2.63;83.23
46291;BME280;32023;44.444;26.006;2022-12-20T05:29:12;102785.69;;;-2.70;83.31
46291;BME280;32023;44.444;26.006;2022-12-20T05:31:39;102768.00;;;-2.74;83.39
46291;BME280;32023;44.444;26.006;2022-12-20T05:34:05;102775.47;;;-2.78;83.32
46291;BME280;32023;44.444;26.006;2022-12-20T05:36:31;102776.22;;;-2.76;83.48
46291;BME280;32023;44.444;26.006;2022-12-20T05:38:58;102770.47;;;-2.71;83.62
46291;BME280;32023;44.444;26.006;2022-12-20T05:41:25;102772.97;;;-2.68;83.55
46291;BME280;32023;44.444;26.006;2022-12-20T05:43:51;102770.75;;;-2.63;83.61
46291;BME280;32023;44.444;26.006;2022-12-20T05:46:18;102765.66;;;-2.55;83.42
46291;BME280;32023;44.444;26.006;2022-12-20T05:48:44;102770.94;;;-2.54;83.01
46291;BME280;32023;44.444;26.006;2022-12-20T05:51:19;102763.19;;;-2.58;82.57
46291;BME280;32023;44.444;26.006;2022-12-20T05:53:48;102766.13;;;-2.61;83.16
46291;BME280;32023;44.444;26.006;2022-12-20T05:59:24;102761.81;;;-2.64;83.23
46291;BME280;32023;44.444;26.006;2022-12-20T06:02:09;102753.31;;;-2.70;83.10
46291;BME280;32023;44.444;26.006;2022-12-20T06:05:19;102743.50;;;-2.71;82.97
46291;BME280;32023;44.444;26.006;2022-12-20T06:08:15;102756.53;;;-2.65;83.21
46291;BME280;32023;44.444;26.006;2022-12-20T06:11:15;102758.44;;;-2.55;83.77
46291;BME280;32023;44.444;26.006;2022-12-20T06:14:12;102765.69;;;-2.44;84.13
46291;BME280;32023;44.444;26.006;2022-12-20T06:16:57;102752.59;;;-2.37;84.50
46291;BME280;32023;44.444;26.006;2022-12-20T06:20:04;102759.75;;;-2.25;84.58
46291;BME280;32023;44.444;26.006;2022-12-20T06:22:40;102763.59;;;-2.17;83.97
46291;BME280;32023;44.444;26.006;2022-12-20T06:25:43;102752.81;;;-2.06;83.33
46291;BME280;32023;44.444;26.006;2022-12-20T06:28:12;102748.91;;;-1.90;82.76
46291;BME280;32023;44.444;26.006;2022-12-20T06:31:01;102755.31;;;-1.69;82.83
46291;BME280;32023;44.444;26.006;2022-12-20T06:33:33;102756.44;;;-1.61;82.21
46291;BME280;32023;44.444;26.006;2022-12-20T06:36:02;102772.28;;;-1.45;82.17
46291;BME280;32023;44.444;26.006;2022-12-20T06:38:34;102750.16;;;-1.28;81.58
46291;BME280;32023;44.444;26.006;2022-12-20T06:41:07;102753.44;;;-1.13;80.80
46291;BME280;32023;44.444;26.006;2022-12-20T06:43:41;102755.41;;;-1.04;79.89
46291;BME280;32023;44.444;26.006;2022-12-20T06:46:30;102752.34;;;-1.00;78.96
46291;BME280;32023;44.444;26.006;2022-12-20T06:48:57;102744.28;;;-0.79;78.68
46291;BME280;32023;44.444;26.006;2022-12-20T06:51:57;102750.25;;;-0.64;77.46
46291;BME280;32023;44.444;26.006;2022-12-20T06:58:15;102753.47;;;-0.18;75.18
46291;BME280;32023;44.444;26.006;2022-12-20T07:01:44;102748.16;;;-0.08;73.19
46291;BME280;32023;44.444;26.006;2022-12-20T07:10:55;102748.88;;;0.45;71.95
46291;BME280;32023;44.444;26.006;2022-12-20T07:13:45;102742.34;;;0.97;71.61
46291;BME280;32023;44.444;26.006;2022-12-20T07:16:35;102743.13;;;1.37;69.26
46291;BME280;32023;44.444;26.006;2022-12-20T07:19:09;102739.25;;;1.78;68.94
46291;BME280;32023;44.444;26.006;2022-12-20T07:21:40;102737.78;;;2.13;67.65
46291;BME280;32023;44.444;26.006;2022-12-20T07:27:10;102732.09;;;2.80;63.76
46291;BME280;32023;44.444;26.006;2022-12-20T07:29:42;102735.22;;;3.12;63.20
46291;BME280;32023;44.444;26.006;2022-12-20T07:32:09;102740.75;;;3.38;61.73
46291;BME280;32023;44.444;26.006;2022-12-20T07:34:39;102732.50;;;3.65;61.50
46291;BME280;32023;44.444;26.006;2022-12-20T07:37:06;102733.41;;;3.92;60.32
46291;BME280;32023;44.444;26.006;2022-12-20T07:39:37;102733.97;;;4.21;59.14
46291;BME280;32023;44.444;26.006;2022-12-20T07:42:04;102723.50;;;4.42;58.23
46291;BME280;32023;44.444;26.006;2022-12-20T07:44:33;102729.13;;;4.66;56.35
46291;BME280;32023;44.444;26.006;2022-12-20T07:47:03;102718.25;;;4.41;54.05
46291;BME280;32023;44.444;26.006;2022-12-20T07:49:31;102712.38;;;4.61;55.44
46291;BME280;32023;44.444;26.006;2022-12-20T07:52:05;102721.25;;;4.63;53.96
46291;BME280;32023;44.444;26.006;2022-12-20T07:54:44;102726.75;;;4.71;53.29
46291;BME280;32023;44.444;26.006;2022-12-20T07:57:17;102717.72;;;5.21;52.99
46291;BME280;32023;44.444;26.006;2022-12-20T08:02:39;102724.44;;;5.75;50.99
46291;BME280;32023;44.444;26.006;2022-12-20T08:05:14;102718.13;;;5.82;48.94
46291;BME280;32023;44.444;26.006;2022-12-20T08:11:02;102697.44;;;6.12;48.31
46291;BME280;32023;44.444;26.006;2022-12-20T08:14:16;102701.22;;;6.11;48.00
46291;BME280;32023;44.444;26.006;2022-12-20T08:17:00;102701.50;;;6.41;47.62
46291;BME280;32023;44.444;26.006;2022-12-20T08:19:49;102693.97;;;6.82;45.77
46291;BME280;32023;44.444;26.006;2022-12-20T08:22:20;102684.31;;;7.02;45.85
46291;BME280;32023;44.444;26.006;2022-12-20T08:24:49;102678.13;;;7.31;44.89
46291;BME280;32023;44.444;26.006;2022-12-20T08:27:18;102678.19;;;6.53;44.93
46291;BME280;32023;44.444;26.006;2022-12-20T08:29:44;102669.53;;;6.33;46.06
46291;BME280;32023;44.444;26.006;2022-12-20T08:32:13;102674.47;;;6.76;45.91
46291;BME280;32023;44.444;26.006;2022-12-20T08:34:42;102666.41;;;6.44;45.20
46291;BME280;32023;44.444;26.006;2022-12-20T08:37:09;102666.84;;;6.64;45.50
46291;BME280;32023;44.444;26.006;2022-12-20T08:39:35;102657.84;;;6.86;45.21
46291;BME280;32023;44.444;26.006;2022-12-20T08:42:06;102658.56;;;7.34;44.74
46291;BME280;32023;44.444;26.006;2022-12-20T08:44:35;102664.00;;;7.79;43.92
46291;BME280;32023;44.444;26.006;2022-12-20T08:47:04;102651.13;;;8.17;43.10
46291;BME280;32023;44.444;26.006;2022-12-20T08:49:31;102649.19;;;8.40;42.00
46291;BME280;32023;44.444;26.006;2022-12-20T08:51:57;102646.28;;;8.78;41.29
46291;BME280;32023;44.444;26.006;2022-12-20T08:54:24;102637.00;;;9.14;39.94
46291;BME280;32023;44.444;26.006;2022-12-20T08:56:50;102628.44;;;9.45;39.42
46291;BME280;32023;44.444;26.006;2022-12-20T08:59:22;102628.34;;;9.81;38.82
46291;BME280;32023;44.444;26.006;2022-12-20T09:01:49;102630.09;;;9.89;37.76
46291;BME280;32023;44.444;26.006;2022-12-20T09:04:18;102624.75;;;9.59;37.72
46291;BME280;32023;44.444;26.006;2022-12-20T09:06:44;102618.22;;;10.16;37.46
46291;BME280;32023;44.444;26.006;2022-12-20T09:09:13;102620.00;;;10.65;36.34
46291;BME280;32023;44.444;26.006;2022-12-20T09:11:44;102614.63;;;10.97;35.71
46291;BME280;32023;44.444;26.006;2022-12-20T09:14:10;102606.84;;;10.19;35.90
46291;BME280;32023;44.444;26.006;2022-12-20T09:16:37;102603.78;;;9.80;36.84
46291;BME280;32023;44.444;26.006;2022-12-20T09:19:03;102604.69;;;9.59;37.24
46291;BME280;32023;44.444;26.006;2022-12-20T09:21:33;102554.16;;;10.01;36.66
46291;BME280;32023;44.444;26.006;2022-12-20T09:24:01;102595.47;;;10.76;35.84
46291;BME280;32023;44.444;26.006;2022-12-20T09:26:31;102582.00;;;11.27;34.30
46291;BME280;32023;44.444;26.006;2022-12-20T09:29:12;102579.47;;;12.04;33.82
46291;BME280;32023;44.444;26.006;2022-12-20T09:31:41;102571.78;;;12.26;32.86
46291;BME280;32023;44.444;26.006;2022-12-20T09:34:09;102585.66;;;12.00;32.85
46291;BME280;32023;44.444;26.006;2022-12-20T09:36:37;102576.53;;;11.67;33.50
46291;BME280;32023;44.444;26.006;2022-12-20T09:42:23;102564.00;;;11.97;32.87
46291;BME280;32023;44.444;26.006;2022-12-20T09:45:05;102553.34;;;12.65;32.68
46291;BME280;32023;44.444;26.006;2022-12-20T09:47:35;102550.91;;;13.19;30.99
46291;BME280;32023;44.444;26.006;2022-12-20T09:50:10;102544.94;;;13.72;30.72
46291;BME280;32023;44.444;26.006;2022-12-20T09:53:27;102544.59;;;13.62;30.37
46291;BME280;32023;44.444;26.006;2022-12-20T09:59:19;102535.53;;;15.53;28.48
46291;BME280;32023;44.444;26.006;2022-12-20T10:01:48;102538.69;;;15.80;27.58
46291;BME280;32023;44.444;26.006;2022-12-20T10:04:28;102532.19;;;14.62;28.39
46291;BME280;32023;44.444;26.006;2022-12-20T10:13:13;102510.75;;;16.73;25.63
46291;BME280;32023;44.444;26.006;2022-12-20T10:15:58;102503.25;;;18.28;24.22
46291;BME280;32023;44.444;26.006;2022-12-20T10:19:02;102500.66;;;19.14;23.12
46291;BME280;32023;44.444;26.006;2022-12-20T10:22:04;102491.44;;;19.45;22.25
46291;BME280;32023;44.444;26.006;2022-12-20T10:24:34;102479.88;;;19.05;22.55
46291;BME280;32023;44.444;26.006;2022-12-20T10:27:23;102467.94;;;19.09;22.69
46291;BME280;32023;44.444;26.006;2022-12-20T10:29:51;102472.59;;;18.72;23.04
46291;BME280;32023;44.444;26.006;2022-12-20T10:32:21;102462.59;;;18.81;23.04
46291;BME280;32023;44.444;26.006;2022-12-20T10:38:02;102459.56;;;18.56;23.32
46291;BME280;32023;44.444;26.006;2022-12-20T10:41:01;102454.59;;;18.63;22.51
46291;BME280;32023;44.444;26.006;2022-12-20T10:46:56;102455.22;;;18.97;22.21
46291;BME280;32023;44.444;26.006;2022-12-20T10:49:35;102447.09;;;18.42;22.43
46291;BME280;32023;44.444;26.006;2022-12-20T10:52:14;102447.69;;;15.99;25.17
46291;BME280;32023;44.444;26.006;2022-12-20T10:54:46;102442.28;;;15.46;26.32
46291;BME280;32023;44.444;26.006;2022-12-20T10:57:53;102442.91;;;15.24;26.64
46291;BME280;32023;44.444;26.006;2022-12-20T11:03:53;102431.31;;;15.27;26.46
46291;BME280;32023;44.444;26.006;2022-12-20T11:06:26;102418.84;;;15.88;25.66
46291;BME280;32023;44.444;26.006;2022-12-20T11:09:23;102412.31;;;15.94;26.19
46291;BME280;32023;44.444;26.006;2022-12-20T11:12:15;102408.94;;;15.92;26.15
46291;BME280;32023;44.444;26.006;2022-12-20T11:14:47;102400.00;;;16.30;25.56
46291;BME280;32023;44.444;26.006;2022-12-20T11:23:42;102403.56;;;14.63;27.38
46291;BME280;32023;44.444;26.006;2022-12-20T11:51:44;102348.97;;;11.63;33.15
46291;BME280;32023;44.444;26.006;2022-12-20T11:54:23;102343.38;;;12.51;31.99
46291;BME280;32023;44.444;26.006;2022-12-20T11:57:09;102341.34;;;12.90;31.23
46291;BME280;32023;44.444;26.006;2022-12-20T11:59:49;102347.44;;;10.83;34.14
46291;BME280;32023;44.444;26.006;2022-12-20T12:02:30;102337.69;;;10.47;35.27
46291;BME280;32023;44.444;26.006;2022-12-20T12:08:06;102332.06;;;8.72;38.30
46291;BME280;32023;44.444;26.006;2022-12-20T12:11:28;102320.63;;;9.03;38.44
46291;BME280;32023;44.444;26.006;2022-12-20T12:13:58;102330.09;;;9.28;38.02
46291;BME280;32023;44.444;26.006;2022-12-20T12:16:31;102326.03;;;8.83;38.70
46291;BME280;32023;44.444;26.006;2022-12-20T12:19:00;102315.16;;;8.47;39.49
46291;BME280;32023;44.444;26.006;2022-12-20T12:21:32;102313.19;;;8.20;40.60
46291;BME280;32023;44.444;26.006;2022-12-20T12:24:28;102308.03;;;8.53;39.73
46291;BME280;32023;44.444;26.006;2022-12-20T12:27:01;102313.06;;;9.46;38.42
46291;BME280;32023;44.444;26.006;2022-12-20T12:29:29;102309.47;;;9.52;37.30
46291;BME280;32023;44.444;26.006;2022-12-20T12:32:23;102311.47;;;8.61;38.39
46291;BME280;32023;44.444;26.006;2022-12-20T12:35:07;102312.47;;;8.11;39.57
46291;BME280;32023;44.444;26.006;2022-12-20T12:40:37;102293.81;;;8.70;39.22
46291;BME280;32023;44.444;26.006;2022-12-20T12:49:14;102278.56;;;10.17;36.91
46291;BME280;32023;44.444;26.006;2022-12-20T12:51:51;102277.09;;;10.34;36.65
46291;BME280;32023;44.444;26.006;2022-12-20T12:54:28;102266.94;;;10.41;36.84
46291;BME280;32023;44.444;26.006;2022-12-20T12:57:15;102266.03;;;10.74;35.80
46291;BME280;32023;44.444;26.006;2022-12-20T12:59:45;102263.53;;;10.39;35.66
46291;BME280;32023;44.444;26.006;2022-12-20T13:04:59;102262.53;;;9.53;37.36
46291;BME280;32023;44.444;26.006;2022-12-20T13:09:59;102259.03;;;8.07;40.38
46291;BME280;32023;44.444;26.006;2022-12-20T13:20:35;102249.50;;;6.00;46.18
46291;BME280;32023;44.444;26.006;2022-12-20T13:25:50;102247.22;;;5.35;48.72
46291;BME280;32023;44.444;26.006;2022-12-20T13:33:50;102243.44;;;4.58;51.24
46291;BME280;32023;44.444;26.006;2022-12-20T13:36:29;102248.78;;;4.27;53.13
46291;BME280;32023;44.444;26.006;2022-12-20T13:39:06;102237.06;;;4.11;53.98
46291;BME280;32023;44.444;26.006;2022-12-20T13:41:52;102234.84;;;3.90;54.98
46291;BME280;32023;44.444;26.006;2022-12-20T13:44:44;102186.63;;;3.42;55.47
46291;BME280;32023;44.444;26.006;2022-12-20T13:48:04;102227.53;;;3.66;55.63
46291;BME280;32023;44.444;26.006;2022-12-20T13:50:38;102233.78;;;3.67;55.66
46291;BME280;32023;44.444;26.006;2022-12-20T13:53:22;102229.72;;;3.71;55.51
46291;BME280;32023;44.444;26.006;2022-12-20T13:55:57;102225.63;;;3.67;56.19
46291;BME280;32023;44.444;26.006;2022-12-20T13:58:33;102229.69;;;3.38;57.38
46291;BME280;32023;44.444;26.006;2022-12-20T14:01:30;102229.16;;;3.35;57.80
46291;BME280;32023;44.444;26.006;2022-12-20T14:04:10;102229.69;;;3.38;57.97
46291;BME280;32023;44.444;26.006;2022-12-20T14:09:53;102214.34;;;3.29;57.97
46291;BME280;32023;44.444;26.006;2022-12-20T14:12:24;102210.56;;;3.14;58.69
46291;BME280;32023;44.444;26.006;2022-12-20T14:15:17;102217.63;;;2.91;59.54
46291;BME280;32023;44.444;26.006;2022-12-20T14:18:03;102217.09;;;2.79;59.89
46291;BME280;32023;44.444;26.006;2022-12-20T14:27:51;102204.88;;;2.50;60.62
46291;BME280;32023;44.444;26.006;2022-12-20T14:30:41;102204.84;;;2.41;60.56
46291;BME280;32023;44.444;26.006;2022-12-20T14:36:38;102200.13;;;2.18;61.81
46291;BME280;32023;44.444;26.006;2022-12-20T14:39:33;102199.00;;;2.03;62.57
46291;BME280;32023;44.444;26.006;2022-12-20T14:44:47;102200.50;;;1.79;63.54
46291;BME280;32023;44.444;26.006;2022-12-20T14:47:48;102196.00;;;1.70;63.95
46291;BME280;32023;44.444;26.006;2022-12-20T14:50:50;102191.88;;;1.58;64.85
46291;BME280;32023;44.444;26.006;2022-12-20T14:53:26;102188.34;;;1.48;65.20
46291;BME280;32023;44.444;26.006;2022-12-20T14:56:19;102190.94;;;1.32;66.00
46291;BME280;32023;44.444;26.006;2022-12-20T14:59:13;102191.72;;;1.24;66.46
46291;BME280;32023;44.444;26.006;2022-12-20T15:02:04;102190.78;;;1.16;66.99
46291;BME280;32023;44.444;26.006;2022-12-20T15:04:46;102187.34;;;1.14;67.12
46291;BME280;32023;44.444;26.006;2022-12-20T15:07:30;102189.69;;;1.09;67.63
46291;BME280;32023;44.444;26.006;2022-12-20T15:10:12;102186.03;;;1.00;67.92
46291;BME280;32023;44.444;26.006;2022-12-20T15:12:44;102177.66;;;0.93;68.87
46291;BME280;32023;44.444;26.006;2022-12-20T15:18:06;102175.84;;;0.84;69.39
46291;BME280;32023;44.444;26.006;2022-12-20T15:20:33;102162.47;;;0.83;69.48
46291;BME280;32023;44.444;26.006;2022-12-20T15:23:18;102182.88;;;0.77;70.04
46291;BME280;32023;44.444;26.006;2022-12-20T15:25:51;102173.66;;;0.70;70.46
46291;BME280;32023;44.444;26.006;2022-12-20T15:28:24;102165.66;;;0.69;70.52
46291;BME280;32023;44.444;26.006;2022-12-20T15:30:57;102165.09;;;0.65;70.75
46291;BME280;32023;44.444;26.006;2022-12-20T15:33:36;102164.88;;;0.59;70.96
46291;BME280;32023;44.444;26.006;2022-12-20T15:36:26;102161.91;;;0.52;71.38
46291;BME280;32023;44.444;26.006;2022-12-20T15:39:04;102158.66;;;0.48;71.79
46291;BME280;32023;44.444;26.006;2022-12-20T15:41:44;102172.34;;;0.47;72.00
46291;BME280;32023;44.444;26.006;2022-12-20T15:44:28;102180.91;;;0.42;72.05
46291;BME280;32023;44.444;26.006;2022-12-20T15:46:56;102160.41;;;0.40;72.32
46291;BME280;32023;44.444;26.006;2022-12-20T15:49:28;102162.56;;;0.36;72.63
46291;BME280;32023;44.444;26.006;2022-12-20T15:51:58;102162.13;;;0.41;72.50
46291;BME280;32023;44.444;26.006;2022-12-20T15:54:37;102158.69;;;0.39;72.50
46291;BME280;32023;44.444;26.006;2022-12-20T15:57:08;102150.31;;;0.32;72.50
46291;BME280;32023;44.444;26.006;2022-12-20T15:59:40;102144.88;;;0.32;72.64
46291;BME280;32023;44.444;26.006;2022-12-20T16:08:41;102140.91;;;0.27;72.78
46291;BME280;32023;44.444;26.006;2022-12-20T16:15:34;102138.13;;;0.19;73.51
46291;BME280;32023;44.444;26.006;2022-12-20T16:18:15;102138.41;;;0.16;73.88
46291;BME280;32023;44.444;26.006;2022-12-20T16:25:59;102132.88;;;0.08;74.34
46291;BME280;32023;44.444;26.006;2022-12-20T16:31:50;102120.66;;;0.04;74.48
46291;BME280;32023;44.444;26.006;2022-12-20T16:34:43;102118.06;;;0.02;74.59
46291;BME280;32023;44.444;26.006;2022-12-20T16:37:19;102111.81;;;0.02;74.63
46291;BME280;32023;44.444;26.006;2022-12-20T16:39:46;102104.53;;;0.02;74.77
46291;BME280;32023;44.444;26.006;2022-12-20T16:42:23;102099.25;;;0.00;74.84
46291;BME280;32023;44.444;26.006;2022-12-20T16:45:01;102107.09;;;0.04;74.73
46291;BME280;32023;44.444;26.006;2022-12-20T16:48:12;102110.09;;;0.00;74.73
46291;BME280;32023;44.444;26.006;2022-12-20T16:50:47;102101.97;;;0.00;74.81
46291;BME280;32023;44.444;26.006;2022-12-20T16:53:21;102099.25;;;0.00;74.79
46291;BME280;32023;44.444;26.006;2022-12-20T16:56:18;102096.72;;;-0.01;74.70
46291;BME280;32023;44.444;26.006;2022-12-20T16:58:52;102091.84;;;0.03;74.72
46291;BME280;32023;44.444;26.006;2022-12-20T17:01:37;102087.44;;;0.02;74.60